Time;durP1;ratioP1;P1;durP2;ratioP2;P2;SDS_P1;SDS_P2;PMS_P1;PMS_P2;Temp;Humidity;BMP_temperature;BMP_pressure;BME280_temperature;BME280_humidity;BME280_pressure;Samples;Min_cycle;Max_cycle;Signal;HPM_P1;HPM_P2
2022/07/25 00:00:09;;;;;;;39.03;14.45;;;;;;;29.32;64.66;99200.41;5110695;28;20194;-59
2022/07/25 00:02:36;;;;;;;36.53;14.75;;;;;;;28.97;69.23;99193.63;5110514;28;20194;-59
2022/07/25 00:05:04;;;;;;;31.55;14.80;;;;;;;28.66;69.96;99198.78;5110223;28;20323;-59
2022/07/25 00:07:31;;;;;;;28.02;14.10;;;;;;;28.41;71.25;99192.59;5110315;28;20294;-59
2022/07/25 00:09:58;;;;;;;26.77;14.98;;;;;;;28.11;74.66;99187.84;5110245;28;20247;-60
2022/07/25 00:12:27;;;;;;;34.65;14.73;;;;;;;27.89;75.63;99201.78;5110310;28;20194;-59
2022/07/25 00:14:53;;;;;;;21.90;13.95;;;;;;;27.82;73.77;99206.94;5110476;28;20198;-59
2022/07/25 00:17:20;;;;;;;26.75;14.30;;;;;;;27.67;76.05;99212.03;5091410;28;20205;-59
2022/07/25 00:19:47;;;;;;;25.60;14.43;;;;;;;27.40;82.03;99223.72;5089411;28;20692;-58
2022/07/25 00:22:14;;;;;;;24.42;14.23;;;;;;;27.08;84.11;99228.88;5089711;28;20218;-59
2022/07/25 00:24:41;;;;;;;17.17;13.98;;;;;;;26.78;86.57;99230.09;5089692;28;20225;-59
2022/07/25 00:27:08;;;;;;;21.85;15.27;;;;;;;26.51;87.83;99239.03;5089749;28;20238;-60
2022/07/25 00:29:36;;;;;;;21.92;13.35;;;;;;;26.39;88.00;99230.41;5089758;28;20213;-58
2022/07/25 00:32:04;;;;;;;15.45;13.32;;;;;;;26.22;87.06;99243.66;5090095;28;20200;-59
2022/07/25 00:34:31;;;;;;;17.75;13.18;;;;;;;26.30;89.29;99243.78;5089601;28;20286;-58
2022/07/25 00:36:58;;;;;;;14.38;13.15;;;;;;;26.27;84.90;99242.28;5089665;28;20199;-58
2022/07/25 00:39:25;;;;;;;16.08;14.38;;;;;;;26.33;82.48;99246.13;5089976;28;20203;-59
2022/07/25 00:41:52;;;;;;;18.20;13.45;;;;;;;26.37;79.89;99242.19;5089706;28;20199;-67
2022/07/25 00:44:23;;;;;;;16.67;14.95;;;;;;;26.26;80.22;99219.28;5089757;28;20205;-69
2022/07/25 00:46:51;;;;;;;16.15;14.73;;;;;;;26.44;80.98;99242.41;5089696;28;20214;-63
2022/07/25 00:49:19;;;;;;;17.88;16.23;;;;;;;26.50;78.86;99226.69;5089511;28;20203;-65
2022/07/25 00:51:46;;;;;;;16.10;14.57;;;;;;;26.58;80.59;99226.75;5089776;28;20239;-65
2022/07/25 00:54:14;;;;;;;15.77;14.48;;;;;;;26.71;78.31;99229.88;5089710;28;20592;-67
2022/07/25 00:56:41;;;;;;;14.40;13.15;;;;;;;26.79;72.97;99229.09;5089708;28;20191;-67
2022/07/25 00:59:09;;;;;;;13.65;12.75;;;;;;;26.88;71.50;99227.31;5089752;28;20191;-66
2022/07/25 01:01:36;;;;;;;13.30;12.20;;;;;;;26.97;69.99;99226.47;5089473;28;20205;-66
2022/07/25 01:04:05;;;;;;;12.77;11.90;;;;;;;27.09;68.72;99218.03;5089620;28;20195;-66
2022/07/25 01:06:33;;;;;;;12.27;11.48;;;;;;;27.15;69.06;99226.41;5089607;28;20258;-65
2022/07/25 01:09:01;;;;;;;12.50;11.40;;;;;;;27.08;68.38;99207.56;5089696;28;20306;-69
2022/07/25 01:11:28;;;;;;;24.65;22.42;;;;;;;27.19;68.06;99233.94;5089389;28;20191;-70
2022/07/25 01:13:55;;;;;;;12.98;12.07;;;;;;;27.19;67.24;99233.09;5089412;28;20203;-69
2022/07/25 01:16:22;;;;;;;13.20;12.07;;;;;;;27.18;67.96;99232.25;5089756;28;20194;-69
2022/07/25 01:18:49;;;;;;;15.73;14.35;;;;;;;27.16;65.43;99234.25;5090008;28;20203;-69
2022/07/25 01:21:17;;;;;;;17.05;15.40;;;;;;;27.17;65.09;99225.25;5089416;28;20199;-68
2022/07/25 01:23:44;;;;;;;12.30;11.45;;;;;;;27.20;64.17;99230.25;5089364;28;20196;-67
2022/07/25 01:26:11;;;;;;;12.35;11.38;;;;;;;27.16;67.09;99228.91;5089646;28;20240;-70
2022/07/25 01:28:38;;;;;;;12.63;11.82;;;;;;;27.18;65.29;99226.09;5089550;28;20191;-67
2022/07/25 01:31:06;;;;;;;13.20;12.07;;;;;;;27.17;64.18;99225.25;5089683;28;20580;-68
2022/07/25 01:33:33;;;;;;;15.55;14.25;;;;;;;27.12;62.71;99222.22;5093153;28;20203;-69
2022/07/25 01:36:00;;;;;;;12.02;10.98;;;;;;;27.23;63.22;99218.44;5093365;28;20661;-69
2022/07/25 01:38:28;;;;;;;12.48;11.27;;;;;;;27.24;60.88;99199.63;5093269;28;20676;-68
2022/07/25 01:40:55;;;;;;;11.88;10.82;;;;;;;27.36;60.02;99203.72;5093034;28;20211;-65
2022/07/25 01:43:22;;;;;;;11.05;10.40;;;;;;;27.35;59.91;99202.03;5093320;28;20595;-66
2022/07/25 01:45:49;;;;;;;11.48;10.70;;;;;;;27.34;61.47;99200.34;5093578;28;20779;-67
2022/07/25 01:48:16;;;;;;;13.02;12.18;;;;;;;27.38;61.17;99191.06;5092754;28;20222;-65
2022/07/25 01:50:43;;;;;;;13.63;12.30;;;;;;;27.35;62.98;99196.69;5092695;28;20203;-67
2022/07/25 01:53:10;;;;;;;12.50;11.57;;;;;;;27.33;61.41;99190.69;5092953;28;20610;-68
2022/07/25 01:55:38;;;;;;;14.20;12.93;;;;;;;27.38;61.25;99176.91;5092626;28;20202;-67
2022/07/25 01:58:06;;;;;;;13.50;12.35;;;;;;;27.34;61.68;99173.72;5092621;28;20203;-58
2022/07/25 02:00:33;;;;;;;13.40;12.30;;;;;;;27.32;63.39;99153.53;5092766;28;20195;-68
2022/07/25 02:05:44;;;;;;;13.45;12.35;;;;;;;27.37;64.79;99145.91;5092769;28;20785;-65
2022/07/25 02:08:11;;;;;;;13.05;11.95;;;;;;;27.26;64.35;99139.03;5092347;28;20195;-65
2022/07/25 02:10:39;;;;;;;13.23;12.32;;;;;;;27.37;63.46;99151.25;5084407;28;20658;-66
2022/07/25 02:13:06;;;;;;;13.68;12.52;;;;;;;27.39;63.54;99134.09;5092019;28;20249;-64
2022/07/25 02:15:33;;;;;;;12.38;11.68;;;;;;;27.36;63.92;99137.06;5092514;28;20282;-65
2022/07/25 02:18:00;;;;;;;12.63;11.82;;;;;;;27.37;63.83;99136.09;5092732;28;20658;-66
2022/07/25 02:20:27;;;;;;;13.20;12.23;;;;;;;27.37;64.30;99129.91;5092386;28;20668;-58
2022/07/25 02:22:54;;;;;;;12.52;11.43;;;;;;;27.35;65.10;99127.41;5091802;28;20199;-58
2022/07/25 02:25:21;;;;;;;13.10;11.88;;;;;;;27.35;65.62;99126.56;5091978;28;20310;-58
2022/07/25 02:27:50;;;;;;;13.73;12.35;;;;;;;27.20;66.58;99118.34;5092200;28;20234;-59
2022/07/25 02:30:17;;;;;;;14.00;12.52;;;;;;;27.04;65.08;99104.94;5092018;28;20191;-59
2022/07/25 02:32:44;;;;;;;13.13;12.02;;;;;;;27.05;65.78;99111.94;5091989;28;20664;-67
2022/07/25 02:35:10;;;;;;;13.15;12.18;;;;;;;27.04;65.98;99102.28;5092212;28;20195;-68
2022/07/25 02:37:37;;;;;;;13.05;12.05;;;;;;;26.93;65.02;99105.22;5091931;28;20197;-68
2022/07/25 02:40:05;;;;;;;12.50;11.63;;;;;;;26.96;66.20;99111.09;5092728;28;20195;-67
2022/07/25 02:42:32;;;;;;;13.40;12.30;;;;;;;26.99;66.15;99115.22;5091627;28;20210;-66
2022/07/25 02:45:01;;;;;;;14.45;13.05;;;;;;;26.98;67.20;99114.41;5091833;28;20191;-60
2022/07/25 02:47:28;;;;;;;18.05;13.32;;;;;;;26.90;67.55;99121.47;5091622;28;20235;-69
2022/07/25 02:49:55;;;;;;;14.32;12.85;;;;;;;26.92;67.45;99119.50;5091906;28;20202;-67
2022/07/25 02:52:22;;;;;;;13.93;12.65;;;;;;;26.83;68.21;99129.28;5091905;28;20688;-68
2022/07/25 02:54:49;;;;;;;12.10;11.20;;;;;;;26.86;67.37;99114.81;5091690;28;20205;-69
2022/07/25 02:57:16;;;;;;;12.48;11.30;;;;;;;26.87;67.80;99111.97;5091394;28;20198;-66
2022/07/25 02:59:43;;;;;;;12.10;11.30;;;;;;;26.84;66.53;99116.78;5091975;28;20728;-66
2022/07/25 03:02:11;;;;;;;12.27;11.15;;;;;;;26.79;67.11;99129.72;5087214;28;20199;-68
2022/07/25 03:04:38;;;;;;;10.52;9.93;;;;;;;26.89;66.60;99130.47;5082307;28;20199;-66
2022/07/25 03:07:05;;;;;;;11.55;10.65;;;;;;;26.95;66.04;99130.72;5081909;28;20219;-67
2022/07/25 03:09:32;;;;;;;11.75;10.07;;;;;;;26.94;66.38;99145.03;5080777;28;20738;-67
2022/07/25 03:11:59;;;;;;;11.15;10.35;;;;;;;26.93;66.83;99137.19;5091269;28;20206;-67
2022/07/25 03:14:26;;;;;;;10.98;10.23;;;;;;;27.01;66.86;99140.72;5091694;28;20651;-67
2022/07/25 03:16:53;;;;;;;11.60;10.73;;;;;;;27.09;71.99;99146.09;5073076;28;20202;-67
2022/07/25 03:19:21;;;;;;;11.10;10.30;;;;;;;27.13;64.78;99148.44;5071058;28;20230;-64
2022/07/25 03:21:48;;;;;;;11.95;10.63;;;;;;;27.16;65.70;99148.13;5072240;28;20202;-66
2022/07/25 03:24:15;;;;;;;10.90;10.07;;;;;;;27.12;63.81;99152.94;5074801;28;20194;-67
2022/07/25 03:26:42;;;;;;;11.82;11.05;;;;;;;27.03;64.28;99154.72;5079489;28;20701;-65
2022/07/25 03:29:09;;;;;;;11.93;11.10;;;;;;;27.09;63.06;99155.91;5079996;28;20205;-64
2022/07/25 03:31:36;;;;;;;11.85;10.85;;;;;;;27.04;63.81;99153.75;5078308;28;20341;-58
2022/07/25 03:34:03;;;;;;;11.70;10.90;;;;;;;27.07;63.53;99161.44;5078727;28;20192;-59
2022/07/25 03:36:31;;;;;;;11.55;10.75;;;;;;;27.09;63.38;99166.56;5079487;28;20201;-59
2022/07/25 03:38:58;;;;;;;11.50;10.70;;;;;;;27.06;63.80;99165.09;5079897;28;20195;-60
2022/07/25 03:41:25;;;;;;;11.02;10.07;;;;;;;27.09;62.32;99163.91;5072895;28;20200;-59
2022/07/25 03:43:53;;;;;;;11.20;9.55;;;;;;;27.00;61.81;99176.34;5073982;28;20204;-66
2022/07/25 03:46:19;;;;;;;11.05;10.15;;;;;;;26.96;62.67;99169.69;5078550;28;20217;-67
2022/07/25 03:48:46;;;;;;;11.13;10.32;;;;;;;26.92;62.91;99178.09;5083949;28;20768;-68
2022/07/25 03:51:13;;;;;;;12.00;11.00;;;;;;;26.93;63.30;99174.47;5086179;28;20740;-59
2022/07/25 03:56:26;;;;;;;11.35;10.50;;;;;;;26.90;63.91;99180.91;5090264;28;20272;-68
2022/07/25 03:58:53;;;;;;;12.68;11.60;;;;;;;26.78;64.70;99168.84;5090244;28;20317;-68
2022/07/25 04:01:20;;;;;;;12.23;11.25;;;;;;;26.82;65.85;99172.03;5090174;28;20283;-66
2022/07/25 04:03:47;;;;;;;13.23;11.75;;;;;;;26.71;65.80;99163.31;5090617;28;20196;-66
2022/07/25 04:06:14;;;;;;;12.77;11.55;;;;;;;26.71;66.16;99171.31;5090340;28;20319;-67
2022/07/25 04:08:43;;;;;;;12.57;11.48;;;;;;;26.72;65.61;99166.81;5090575;28;20199;-67
2022/07/25 04:11:10;;;;;;;12.07;11.20;;;;;;;26.72;65.05;99162.31;5089946;28;20196;-64
2022/07/25 04:13:36;;;;;;;15.10;12.43;;;;;;;26.82;64.90;99174.69;5089941;28;20191;-66
2022/07/25 04:16:04;;;;;;;12.63;11.52;;;;;;;26.96;63.56;99171.50;5090199;28;20198;-67
2022/07/25 04:18:31;;;;;;;56.60;20.52;;;;;;;27.00;69.98;99172.84;5090210;28;20777;-58
2022/07/25 04:20:58;;;;;;;12.73;11.60;;;;;;;27.06;63.69;99174.91;5089829;28;20565;-58
2022/07/25 04:23:25;;;;;;;14.40;11.98;;;;;;;27.18;63.02;99178.13;5089752;28;20196;-59
2022/07/25 04:25:53;;;;;;;11.63;10.82;;;;;;;27.19;61.66;99170.00;5089426;28;20225;-59
2022/07/25 04:28:20;;;;;;;12.10;11.20;;;;;;;27.35;62.81;99172.72;5089552;28;20210;-59
2022/07/25 04:30:47;;;;;;;12.52;11.38;;;;;;;27.42;62.12;99171.09;5089751;28;20202;-66
2022/07/25 04:33:15;;;;;;;13.23;11.43;;;;;;;27.56;61.33;99182.16;5090022;28;20191;-66
2022/07/25 04:35:42;;;;;;;16.45;10.75;;;;;;;27.63;61.06;99172.53;5089359;28;20294;-65
2022/07/25 04:38:09;;;;;;;13.68;10.32;;;;;;;27.73;60.45;99176.75;5089542;28;20195;-66
2022/07/25 04:40:36;;;;;;;12.75;11.75;;;;;;;27.77;60.25;99179.91;5089747;28;20633;-66
2022/07/25 04:43:05;;;;;;;11.65;10.70;;;;;;;27.79;60.75;99176.09;5089531;28;20201;-67
2022/07/25 04:45:33;;;;;;;11.52;10.63;;;;;;;27.89;60.31;99183.13;5089671;28;20207;-66
2022/07/25 04:48:00;;;;;;;15.20;14.00;;;;;;;27.90;59.71;99184.78;5089430;28;20267;-66
2022/07/25 04:50:27;;;;;;;14.98;13.57;;;;;;;28.00;59.28;99180.97;5088408;28;20287;-66
2022/07/25 04:52:54;;;;;;;19.77;16.67;;;;;;;28.04;59.64;99182.34;5089354;28;20198;-58
2022/07/25 04:55:22;;;;;;;15.18;13.73;;;;;;;28.04;59.86;99176.16;5089729;28;20651;-58
2022/07/25 04:57:49;;;;;;;12.13;11.05;;;;;;;28.10;58.83;99189.66;5089800;28;20278;-66
2022/07/25 05:00:18;;;;;;;13.07;12.10;;;;;;;28.17;59.34;99196.06;5089743;28;20206;-66
2022/07/25 05:02:45;;;;;;;12.95;11.95;;;;;;;28.10;59.30;99187.00;5073927;28;20261;-66
2022/07/25 05:05:12;;;;;;;24.10;20.77;;;;;;;28.03;60.02;99196.66;5068613;28;20206;-66
2022/07/25 05:07:38;;;;;;;14.30;13.13;;;;;;;27.99;60.37;99189.16;5072116;28;20604;-66
2022/07/25 05:10:06;;;;;;;13.73;12.45;;;;;;;28.09;60.16;99189.84;5072179;28;20444;-66
2022/07/25 05:12:33;;;;;;;12.32;11.43;;;;;;;28.12;60.49;99189.50;5073133;28;20593;-66
2022/07/25 05:15:00;;;;;;;14.13;12.93;;;;;;;28.03;59.98;99188.66;5073059;28;20199;-67
2022/07/25 05:17:29;;;;;;;13.50;12.13;;;;;;;28.01;60.63;99179.97;5073059;28;20195;-66
2022/07/25 05:19:57;;;;;;;13.48;12.30;;;;;;;28.06;60.58;99187.50;5072932;28;20733;-66
2022/07/25 05:22:24;;;;;;;13.65;12.43;;;;;;;28.04;61.35;99193.00;5072797;28;20207;-68
2022/07/25 05:24:51;;;;;;;13.98;12.63;;;;;;;28.10;60.91;99186.19;5072980;28;20226;-67
2022/07/25 05:27:17;;;;;;;13.48;12.23;;;;;;;28.24;60.56;99195.41;5072855;28;20219;-67
2022/07/25 05:29:44;;;;;;;15.18;13.88;;;;;;;28.34;59.93;99204.09;5072540;28;20196;-67
2022/07/25 05:32:11;;;;;;;12.98;11.80;;;;;;;28.33;59.83;99200.59;5073014;28;20586;-68
2022/07/25 05:34:40;;;;;;;14.38;12.95;;;;;;;28.38;59.91;99197.44;5072625;28;20278;-68
2022/07/25 05:37:06;;;;;;;12.50;11.50;;;;;;;28.40;60.38;99203.44;5072635;28;20194;-68
2022/07/25 05:39:33;;;;;;;13.63;12.27;;;;;;;28.49;60.42;99205.13;5072544;28;20215;-66
2022/07/25 05:42:00;;;;;;;13.38;12.27;;;;;;;28.50;60.21;99210.28;5072619;28;20247;-67
2022/07/25 05:44:27;;;;;;;13.20;12.00;;;;;;;28.45;60.13;99206.44;5072625;28;20196;-67
2022/07/25 05:46:54;;;;;;;14.98;13.45;;;;;;;28.55;59.63;99207.13;5072249;28;20228;-66
2022/07/25 05:49:21;;;;;;;14.68;13.10;;;;;;;28.63;60.44;99200.97;5072264;28;20227;-69
2022/07/25 05:51:50;;;;;;;15.55;12.38;;;;;;;28.68;60.57;99204.78;5082083;28;20602;-68
2022/07/25 05:54:17;;;;;;;13.20;12.05;;;;;;;28.72;60.64;99198.13;5092677;28;20195;-68
2022/07/25 05:56:44;;;;;;;12.18;11.38;;;;;;;28.87;59.86;99192.97;5092732;28;20195;-68
2022/07/25 05:59:11;;;;;;;12.93;11.75;;;;;;;28.80;60.42;99195.47;5092587;28;20206;-68
2022/07/25 06:01:38;;;;;;;13.35;11.93;;;;;;;28.89;59.58;99188.28;5092430;28;20233;-67
2022/07/25 06:04:05;;;;;;;13.90;12.50;;;;;;;29.10;59.40;99195.78;5092646;28;20277;-67
2022/07/25 06:06:32;;;;;;;16.92;12.23;;;;;;;29.28;58.75;99193.72;5092610;28;20300;-67
2022/07/25 06:09:00;;;;;;;16.30;12.45;;;;;;;29.42;58.21;99201.06;5092262;28;20202;-67
2022/07/25 06:11:29;;;;;;;13.45;12.27;;;;;;;29.54;57.09;99194.34;5092315;28;20238;-67
2022/07/25 06:13:56;;;;;;;16.08;12.40;;;;;;;29.74;57.59;99199.28;5092312;28;20281;-68
2022/07/25 06:16:23;;;;;;;13.93;12.52;;;;;;;30.03;56.47;99195.97;5092335;28;20664;-59
2022/07/25 06:18:50;;;;;;;12.90;12.05;;;;;;;30.25;55.03;99195.97;5091501;28;20289;-60
2022/07/25 06:21:17;;;;;;;15.15;12.18;;;;;;;30.69;54.24;99200.75;5092402;28;20199;-59
2022/07/25 06:23:44;;;;;;;12.82;11.82;;;;;;;31.03;52.89;99201.09;5092076;28;20199;-60
2022/07/25 06:26:12;;;;;;;13.85;12.73;;;;;;;31.44;51.79;99195.31;5091791;28;20195;-57
2022/07/25 06:28:39;;;;;;;13.40;12.30;;;;;;;31.62;50.25;99201.13;5091720;28;20677;-58
2022/07/25 06:31:06;;;;;;;13.52;12.30;;;;;;;31.32;51.13;99197.63;5091840;28;20644;-58
2022/07/25 06:33:33;;;;;;;12.63;11.52;;;;;;;31.44;50.73;99200.69;5091837;28;20203;-58
2022/07/25 06:36:00;;;;;;;13.73;12.30;;;;;;;31.61;50.55;99201.31;5091741;28;20200;-59
2022/07/25 06:38:27;;;;;;;13.35;12.40;;;;;;;31.66;50.61;99188.19;5091845;28;20642;-58
2022/07/25 06:40:54;;;;;;;15.18;13.85;;;;;;;31.86;49.94;99191.13;5091697;28;20199;-59
2022/07/25 06:43:22;;;;;;;14.00;12.75;;;;;;;31.99;49.17;99194.81;5091673;28;20282;-59
2022/07/25 06:45:49;;;;;;;15.23;12.68;;;;;;;32.23;49.18;99168.66;5091846;28;20585;-59
2022/07/25 06:48:16;;;;;;;14.60;13.20;;;;;;;32.55;48.33;99189.63;5091553;28;20314;-59
2022/07/25 06:50:43;;;;;;;17.27;12.30;;;;;;;33.07;46.32;99189.22;5091521;28;20249;-58
2022/07/25 06:53:10;;;;;;;12.40;11.27;;;;;;;33.60;45.31;99194.13;5091479;28;20201;-59
2022/07/25 06:55:37;;;;;;;16.23;12.27;;;;;;;34.17;43.81;99193.75;5091320;28;20206;-57
2022/07/25 06:58:05;;;;;;;14.48;12.98;;;;;;;34.53;42.72;99194.28;5091271;28;20274;-57
2022/07/25 07:00:33;;;;;;;12.40;11.50;;;;;;;34.46;42.93;99196.13;5091469;28;20222;-59
2022/07/25 07:03:02;;;;;;;14.93;13.80;;;;;;;34.48;42.90;99195.91;5091390;28;20199;-58
2022/07/25 07:05:31;;;;;;;13.90;12.20;;;;;;;34.12;43.11;99193.53;5091129;28;20244;-57
2022/07/25 07:07:59;;;;;;;13.88;12.57;;;;;;;34.22;42.93;99194.78;5091178;28;20305;-56
2022/07/25 07:10:27;;;;;;;18.80;14.68;;;;;;;34.37;42.95;99185.75;5091036;28;20286;-59
2022/07/25 07:13:04;;;;;;;13.43;12.18;;;;;;;34.57;41.78;99182.03;5091068;28;20281;-59
2022/07/25 07:15:31;;;;;;;17.17;15.73;;;;;;;34.60;41.74;99197.78;5090964;28;20286;-59
2022/07/25 07:17:59;;;;;;;14.05;12.60;;;;;;;35.04;41.00;99199.06;5091044;28;20689;-58
2022/07/25 07:20:26;;;;;;;15.05;13.68;;;;;;;35.29;40.64;99202.78;5090937;28;20782;-58
2022/07/25 07:22:53;;;;;;;13.65;12.32;;;;;;;35.49;39.71;99191.09;5091003;28;20248;-58
2022/07/25 07:25:22;;;;;;;12.63;11.48;;;;;;;35.85;38.33;99194.13;5091105;28;20203;-59
2022/07/25 07:27:50;;;;;;;12.65;11.32;;;;;;;36.33;37.79;99199.09;5090823;28;20226;-59
2022/07/25 07:30:17;;;;;;;12.65;11.45;;;;;;;36.55;36.58;99184.16;5089606;28;20295;-59
2022/07/25 07:32:44;;;;;;;13.88;11.20;;;;;;;36.58;37.37;99189.13;5090638;28;20201;-58
2022/07/25 07:35:15;;;;;;;13.88;12.15;;;;;;;37.01;36.09;99185.69;5090683;28;20286;-58
2022/07/25 07:37:43;;;;;;;14.23;12.73;;;;;;;36.93;35.40;99196.75;5090526;28;20587;-59
2022/07/25 07:40:11;;;;;;;11.68;10.75;;;;;;;36.66;36.15;99198.84;5090612;28;20204;-58
2022/07/25 07:42:39;;;;;;;11.27;10.48;;;;;;;36.71;35.59;99193.63;5090429;28;20234;-59
2022/07/25 07:45:18;;;;;;;11.30;10.48;;;;;;;36.80;36.79;99191.50;5090496;28;20729;-58
2022/07/25 07:47:47;;;;;;;11.20;10.50;;;;;;;36.67;35.53;99185.13;5090170;28;20260;-59
2022/07/25 07:50:16;;;;;;;12.82;11.48;;;;;;;36.22;36.53;99197.09;5090316;28;20684;-58
2022/07/25 07:52:43;;;;;;;12.68;11.48;;;;;;;35.79;37.51;99186.84;5090325;28;20206;-59
2022/07/25 07:57:55;;;;;;;11.57;10.52;;;;;;;36.10;36.59;99187.97;5083831;28;20261;-57
2022/07/25 08:00:23;;;;;;;11.48;10.48;;;;;;;37.36;34.88;99192.19;5074735;28;20199;-58
2022/07/25 08:02:52;;;;;;;11.07;10.23;;;;;;;38.53;32.92;99195.53;5069871;28;20203;-57
2022/07/25 08:05:24;;;;;;;11.38;10.40;;;;;;;39.73;31.53;99195.88;5069810;28;20202;-57
2022/07/25 08:07:52;;;;;;;11.23;10.27;;;;;;;41.04;29.32;99196.66;5069783;28;20246;-58
2022/07/25 08:10:20;;;;;;;10.13;9.32;;;;;;;41.11;28.55;99188.31;5069777;28;20192;-57
2022/07/25 08:12:48;;;;;;;10.55;9.88;;;;;;;40.94;28.76;99189.16;5069695;28;20238;-57
2022/07/25 08:15:15;;;;;;;12.55;11.20;;;;;;;40.78;29.17;99192.72;5070007;28;20196;-66
2022/07/25 08:17:42;;;;;;;10.82;9.95;;;;;;;40.91;28.78;99183.38;5069930;28;20199;-66
2022/07/25 08:20:10;;;;;;;10.05;9.43;;;;;;;41.49;28.64;99199.22;5070158;28;20286;-66
2022/07/25 08:22:41;;;;;;;11.75;9.65;;;;;;;41.77;27.37;99190.03;5069717;28;20195;-58
2022/07/25 08:25:09;;;;;;;9.68;9.07;;;;;;;41.63;27.52;99195.09;5069637;28;20282;-66
2022/07/25 08:27:36;;;;;;;10.05;9.45;;;;;;;42.41;27.56;99190.25;5072196;28;20251;-67
2022/07/25 08:30:05;;;;;;;8.82;8.32;;;;;;;42.32;26.77;99195.31;5069993;28;20646;-67
2022/07/25 08:32:32;;;;;;;10.77;9.98;;;;;;;42.23;26.34;99188.66;5069531;28;20290;-66
2022/07/25 08:35:01;;;;;;;9.75;9.15;;;;;;;42.15;26.95;99191.03;5069657;28;20282;-66
2022/07/25 08:37:28;;;;;;;10.70;9.70;;;;;;;41.47;27.60;99195.09;5070146;28;20199;-66
2022/07/25 08:39:57;;;;;;;9.82;9.02;;;;;;;41.14;27.15;99198.72;5069795;28;20768;-65
2022/07/25 08:42:23;;;;;;;9.38;8.77;;;;;;;41.05;27.33;99192.03;5069129;28;20202;-59
2022/07/25 08:44:58;;;;;;;10.15;9.35;;;;;;;40.63;28.01;99193.25;5069399;28;20195;-57
2022/07/25 08:47:27;;;;;;;10.48;9.52;;;;;;;40.60;28.36;99193.78;5069517;28;20623;-58
2022/07/25 08:49:56;;;;;;;10.20;9.60;;;;;;;40.26;28.88;99189.31;5069783;28;20231;-58
2022/07/25 08:52:24;;;;;;;10.13;9.07;;;;;;;40.01;28.83;99191.56;5069326;28;20195;-59
2022/07/25 08:54:51;;;;;;;9.10;8.27;;;;;;;39.63;28.10;99186.69;5069195;28;20199;-58
2022/07/25 08:57:19;;;;;;;9.95;9.35;;;;;;;39.10;29.81;99193.97;5069319;28;20195;-59
2022/07/25 08:59:46;;;;;;;11.30;9.43;;;;;;;39.18;29.53;99187.34;5069344;28;20199;-58
2022/07/25 09:02:14;;;;;;;10.38;9.32;;;;;;;39.36;28.87;99184.50;5069338;28;20195;-59
2022/07/25 09:04:42;;;;;;;10.07;9.48;;;;;;;39.52;28.97;99182.94;5069343;28;20612;-58
2022/07/25 09:07:09;;;;;;;9.63;8.77;;;;;;;39.62;28.52;99177.72;5074380;28;20203;-59
2022/07/25 09:09:38;;;;;;;9.75;9.15;;;;;;;39.26;29.57;99184.28;5089342;28;20289;-58
2022/07/25 09:12:06;;;;;;;10.23;9.43;;;;;;;39.18;31.04;99171.03;5072097;28;20210;-59
2022/07/25 09:14:43;;;;;;;9.50;8.90;;;;;;;39.26;29.11;99173.41;5067124;28;20215;-59
2022/07/25 09:17:10;;;;;;;9.60;8.35;;;;;;;39.05;29.16;99171.31;5067464;28;20205;-59
2022/07/25 09:19:37;;;;;;;8.90;8.40;;;;;;;39.33;28.20;99171.38;5067552;28;20673;-68
2022/07/25 09:22:05;;;;;;;8.88;8.38;;;;;;;39.33;27.77;99176.81;5067678;28;20195;-68
2022/07/25 09:24:33;;;;;;;9.57;8.95;;;;;;;39.32;28.50;99169.72;5067998;28;20192;-69
2022/07/25 09:27:02;;;;;;;8.95;8.18;;;;;;;39.02;28.94;99167.19;5068645;28;20682;-69
2022/07/25 09:29:30;;;;;;;9.48;8.77;;;;;;;39.10;28.56;99163.28;5069182;28;20223;-68
2022/07/25 09:32:00;;;;;;;8.93;8.43;;;;;;;38.55;28.51;99174.44;5068996;28;20203;-69
2022/07/25 09:34:35;;;;;;;10.07;9.00;;;;;;;38.74;28.79;99165.13;5068883;28;20281;-71
2022/07/25 09:37:03;;;;;;;9.73;9.00;;;;;;;38.84;28.46;99165.34;5069116;28;20203;-68
2022/07/25 09:39:35;;;;;;;10.57;9.45;;;;;;;38.85;28.70;99164.31;5080263;28;20682;-69
2022/07/25 09:42:03;;;;;;;10.00;8.25;;;;;;;38.75;28.68;99168.66;5073438;28;20206;-68
2022/07/25 09:44:30;;;;;;;9.02;8.45;;;;;;;38.55;28.36;99166.28;5069072;28;20195;-68
2022/07/25 09:46:57;;;;;;;11.38;8.63;;;;;;;38.49;28.19;99161.75;5073484;28;20253;-68
2022/07/25 09:49:26;;;;;;;9.55;8.75;;;;;;;38.82;28.39;99163.97;5085678;28;20916;-69
2022/07/25 09:51:54;;;;;;;8.50;7.90;;;;;;;39.05;28.40;99160.47;5083715;28;20703;-69
2022/07/25 09:54:22;;;;;;;9.25;8.27;;;;;;;39.09;27.63;99156.19;5072086;28;20233;-69
2022/07/25 09:56:49;;;;;;;8.40;7.85;;;;;;;39.29;28.39;99158.50;5072369;28;20199;-69
2022/07/25 09:59:16;;;;;;;9.35;8.65;;;;;;;38.55;28.53;99155.44;5072217;28;20205;-69
2022/07/25 10:01:52;;;;;;;8.93;8.52;;;;;;;38.15;29.10;99153.31;5072197;28;20293;-69
2022/07/25 10:04:21;;;;;;;9.20;8.50;;;;;;;38.22;28.70;99155.09;5072386;28;20690;-68
2022/07/25 10:06:57;;;;;;;9.52;8.93;;;;;;;38.40;28.86;99141.47;5072482;28;20222;-68
2022/07/25 10:09:24;;;;;;;10.00;9.27;;;;;;;38.04;29.46;99142.38;5072079;28;20329;-67
2022/07/25 10:12:07;;;;;;;9.93;9.32;;;;;;;38.53;29.28;99141.28;5072074;28;20198;-71
2022/07/25 10:14:34;;;;;;;10.07;8.77;;;;;;;38.22;29.00;99144.25;5071481;28;20640;-59
2022/07/25 10:17:01;;;;;;;9.85;9.13;;;;;;;37.28;30.26;99137.53;5072071;28;20199;-58
2022/07/25 10:19:42;;;;;;;10.80;9.90;;;;;;;36.49;31.34;99136.34;5071818;28;20286;-57
2022/07/25 10:22:11;;;;;;;10.27;9.40;;;;;;;36.46;31.36;99125.19;5071552;28;20199;-60
2022/07/25 10:24:43;;;;;;;9.65;8.90;;;;;;;36.34;32.05;99115.09;5071718;28;20194;-57
2022/07/25 10:27:11;;;;;;;9.45;8.85;;;;;;;36.59;31.58;99115.06;5072084;28;20216;-58
2022/07/25 10:29:39;;;;;;;10.48;9.65;;;;;;;36.16;31.58;99106.84;5071762;28;20246;-59
2022/07/25 10:32:08;;;;;;;9.88;9.25;;;;;;;36.17;31.94;99104.97;5071717;28;20287;-57
2022/07/25 10:34:36;;;;;;;10.07;9.38;;;;;;;36.35;33.17;99107.78;5089374;28;20234;-58
2022/07/25 10:37:12;;;;;;;9.70;9.20;;;;;;;36.30;31.60;99105.75;5091959;28;20195;-58
2022/07/25 10:39:40;;;;;;;10.18;9.27;;;;;;;36.08;32.60;99109.00;5091658;28;20278;-58
2022/07/25 10:42:12;;;;;;;10.52;9.52;;;;;;;35.52;32.65;99101.59;5091751;28;20290;-58
2022/07/25 10:44:45;;;;;;;10.70;9.85;;;;;;;35.22;34.03;99096.69;5091563;28;20290;-58
2022/07/25 10:47:13;;;;;;;9.93;9.20;;;;;;;35.01;34.25;99096.13;5076370;28;20192;-58
2022/07/25 10:49:42;;;;;;;10.73;9.93;;;;;;;34.71;34.00;99077.72;5071181;28;20315;-57
2022/07/25 10:52:16;;;;;;;10.00;9.38;;;;;;;34.76;33.97;99087.91;5079730;28;20634;-59
2022/07/25 10:54:54;;;;;;;10.48;9.60;;;;;;;34.80;34.08;99083.75;5079139;28;20203;-57
2022/07/25 10:57:21;;;;;;;10.57;9.43;;;;;;;35.00;35.29;99075.59;5078971;28;20592;-57
2022/07/25 10:59:48;;;;;;;10.95;10.10;;;;;;;35.17;35.09;99069.53;5080593;28;20202;-58
2022/07/25 11:02:16;;;;;;;11.23;10.43;;;;;;;35.24;34.92;99073.03;5081083;28;20290;-58
2022/07/25 11:04:43;;;;;;;11.27;10.18;;;;;;;35.17;34.91;99076.81;5076237;28;20575;-58
2022/07/25 11:07:12;;;;;;;10.57;9.73;;;;;;;34.99;34.97;99079.34;5070867;28;20286;-58
2022/07/25 11:09:42;;;;;;;10.32;9.57;;;;;;;34.93;35.66;99078.31;5070761;28;20223;-58
2022/07/25 11:12:10;;;;;;;11.35;10.20;;;;;;;34.88;35.48;99061.94;5070741;28;20196;-60
2022/07/25 11:14:40;;;;;;;9.80;9.15;;;;;;;35.06;35.13;99062.09;5071092;28;20298;-65
2022/07/25 11:17:13;;;;;;;10.70;9.98;;;;;;;35.10;35.48;99060.66;5070910;28;20195;-65
2022/07/25 11:19:40;;;;;;;10.80;9.88;;;;;;;35.16;34.49;99058.94;5070771;28;20273;-58
2022/07/25 11:22:08;;;;;;;10.80;10.20;;;;;;;35.27;34.46;99071.81;5074441;28;20220;-66
2022/07/25 11:24:36;;;;;;;10.38;9.55;;;;;;;35.09;34.21;99053.59;5102745;28;20253;-66
2022/07/25 11:27:05;;;;;;;11.88;10.82;;;;;;;35.26;34.72;99044.00;5102600;28;20287;-66
2022/07/25 11:29:33;;;;;;;12.38;9.98;;;;;;;35.36;34.46;99037.31;5098204;28;20246;-66